createdAt,value
2019-04-29T00:00:57.828Z,2.20
2019-04-29T00:02:03.383Z,2.40
2019-04-29T00:03:08.450Z,2.50
2019-04-29T00:04:13.236Z,2.00
2019-04-29T00:05:17.919Z,1.80
2019-04-29T00:06:22.384Z,2.30
2019-04-29T00:07:27.404Z,1.90
2019-04-29T00:08:32.769Z,2.42
2019-04-29T00:09:37.579Z,2.30
2019-04-29T00:10:43.106Z,2.17
2019-04-29T00:11:48.199Z,2.40
2019-04-29T00:12:53.488Z,2.58
2019-04-29T00:13:58.774Z,2.30
2019-04-29T00:15:23.814Z,2.40
2019-04-29T00:16:43.165Z,2.47
2019-04-29T00:17:53.496Z,2.30
2019-04-29T00:19:20.168Z,2.33
2019-04-29T00:20:42.177Z,2.30
2019-04-29T00:21:47.818Z,2.42
2019-04-29T00:22:52.299Z,2.52
2019-04-29T00:24:03.516Z,2.08
2019-04-29T00:25:03.527Z,2.50
2019-04-29T00:26:08.042Z,2.25
2019-04-29T00:27:13.310Z,2.47
2019-04-29T00:28:18.089Z,2.20
2019-04-29T00:29:22.523Z,1.95
2019-04-29T00:30:27.838Z,2.22
2019-04-29T00:31:32.535Z,1.92
2019-04-29T00:32:37.499Z,2.17
2019-04-29T00:33:42.722Z,1.87
2019-04-29T00:34:47.980Z,2.10
2019-04-29T00:35:53.323Z,2.22
2019-04-29T00:37:05.622Z,2.17
2019-04-29T00:38:29.474Z,2.40
2019-04-29T00:39:52.545Z,2.25
2019-04-29T00:41:15.622Z,2.17
2019-04-29T00:42:33.126Z,2.35
2019-04-29T00:43:48.167Z,2.50
2019-04-29T00:44:53.116Z,2.27
2019-04-29T00:45:58.106Z,2.05
2019-04-29T00:47:03.130Z,2.17
2019-04-29T00:48:08.123Z,2.10
2019-04-29T00:49:13.396Z,2.47
2019-04-29T00:50:18.355Z,2.17
2019-04-29T00:51:23.424Z,2.10
2019-04-29T00:52:28.690Z,2.10
2019-04-29T00:53:33.974Z,2.12
2019-04-29T00:54:44.258Z,2.10
2019-04-29T00:55:50.884Z,2.33
2019-04-29T00:56:55.850Z,2.15
2019-04-29T00:58:00.610Z,2.17
2019-04-29T00:59:05.336Z,2.42
2019-04-29T01:00:13.387Z,2.47
2019-04-29T01:01:24.585Z,2.45
2019-04-29T01:02:29.308Z,2.20
2019-04-29T01:03:34.360Z,2.02
2019-04-29T01:04:39.328Z,2.10
2019-04-29T01:05:44.022Z,2.00
2019-04-29T01:06:49.290Z,2.47
2019-04-29T01:07:54.677Z,2.12
2019-04-29T01:09:00.029Z,2.58
2019-04-29T01:10:05.783Z,2.12
2019-04-29T01:11:10.797Z,2.27
2019-04-29T01:12:15.864Z,2.10
2019-04-29T01:13:21.234Z,2.35
2019-04-29T01:14:26.830Z,2.33
2019-04-29T01:15:31.323Z,2.37
2019-04-29T01:16:36.574Z,2.60
2019-04-29T01:17:41.541Z,2.35
2019-04-29T01:18:47.103Z,2.25
2019-04-29T01:19:51.784Z,2.30
2019-04-29T01:20:57.110Z,2.42
2019-04-29T01:22:02.800Z,2.50
2019-04-29T01:23:07.788Z,2.42
2019-04-29T01:24:12.756Z,2.45
2019-04-29T01:25:17.459Z,2.20
2019-04-29T01:26:34.357Z,2.45
2019-04-29T01:27:45.103Z,1.98
2019-04-29T01:28:52.911Z,2.20
2019-04-29T01:29:58.198Z,2.33
2019-04-29T01:31:06.663Z,2.33
2019-04-29T01:32:11.663Z,2.12
2019-04-29T01:33:16.872Z,2.33
2019-04-29T01:34:26.831Z,2.20
2019-04-29T01:35:32.386Z,2.20
2019-04-29T01:36:42.266Z,2.10
2019-04-29T01:37:47.261Z,2.00
2019-04-29T01:38:53.438Z,2.40
2019-04-29T01:40:29.735Z,2.27
2019-04-29T01:41:40.887Z,2.30
2019-04-29T01:42:45.861Z,2.50
2019-04-29T01:44:01.237Z,2.47
2019-04-29T01:45:06.018Z,2.42
2019-04-29T01:46:11.056Z,2.42
2019-04-29T01:47:16.020Z,2.25
2019-04-29T01:48:20.725Z,2.40
2019-04-29T01:49:25.776Z,2.50
2019-04-29T01:50:31.156Z,2.02
2019-04-29T01:51:36.242Z,1.98
2019-04-29T01:52:41.219Z,1.92
2019-04-29T01:53:46.871Z,2.52
2019-04-29T01:54:52.148Z,2.10
2019-04-29T01:55:57.127Z,2.15
2019-04-29T01:57:02.711Z,2.10
2019-04-29T01:58:08.407Z,2.35
2019-04-29T01:59:13.662Z,2.27
2019-04-29T02:00:18.644Z,2.80
2019-04-29T02:01:23.917Z,2.67
2019-04-29T02:02:29.499Z,2.10
2019-04-29T02:03:34.222Z,2.08
2019-04-29T02:04:39.715Z,2.00
2019-04-29T02:05:44.796Z,2.20
2019-04-29T02:06:49.854Z,2.30
2019-04-29T02:07:54.659Z,2.20
2019-04-29T02:08:59.384Z,2.15
2019-04-29T02:10:29.675Z,2.30
2019-04-29T02:11:34.743Z,2.40
2019-04-29T02:12:39.721Z,2.40
2019-04-29T02:13:45.261Z,2.40
2019-04-29T02:14:50.267Z,2.33
2019-04-29T02:15:55.845Z,2.12
2019-04-29T02:17:00.871Z,2.42
2019-04-29T02:18:06.376Z,2.35
2019-04-29T02:19:11.772Z,2.22
2019-04-29T02:20:16.852Z,2.62
2019-04-29T02:21:22.533Z,2.58
2019-04-29T02:22:34.233Z,2.30
2019-04-29T02:23:50.196Z,2.40
2019-04-29T02:24:59.341Z,2.40
2019-04-29T02:26:03.940Z,2.30
2019-04-29T02:27:08.625Z,2.30
2019-04-29T02:28:14.232Z,2.22
2019-04-29T02:29:19.711Z,2.52
2019-04-29T02:30:44.582Z,2.33
2019-04-29T02:31:49.373Z,2.30
2019-04-29T02:32:54.886Z,2.52
2019-04-29T02:33:59.849Z,2.35
2019-04-29T02:35:04.943Z,1.87
2019-04-29T02:36:09.882Z,2.30
2019-04-29T02:37:17.212Z,1.98
2019-04-29T02:38:41.366Z,1.98
2019-04-29T02:39:58.635Z,2.27
2019-04-29T02:41:12.612Z,2.10
2019-04-29T02:42:45.510Z,2.10
2019-04-29T02:43:52.197Z,2.65
2019-04-29T02:44:59.505Z,2.35
2019-04-29T02:46:04.516Z,2.47
2019-04-29T02:47:09.473Z,2.30
2019-04-29T02:48:14.419Z,2.05
2019-04-29T02:49:19.675Z,2.30
2019-04-29T02:50:24.743Z,2.20
2019-04-29T02:51:51.021Z,2.37
2019-04-29T02:52:56.031Z,2.30
2019-04-29T02:54:01.056Z,2.27
2019-04-29T02:55:07.307Z,2.22
2019-04-29T02:56:12.002Z,2.22
2019-04-29T02:57:24.381Z,2.33
2019-04-29T02:58:47.992Z,2.80
2019-04-29T02:59:55.595Z,2.80
2019-04-29T03:01:08.299Z,2.58
2019-04-29T03:02:30.579Z,2.42
2019-04-29T03:03:53.055Z,2.75
2019-04-29T03:05:13.650Z,2.58
2019-04-29T03:06:18.633Z,2.70
2019-04-29T03:07:23.083Z,2.20
2019-04-29T03:08:28.078Z,2.17
2019-04-29T03:09:34.903Z,2.10
2019-04-29T03:10:39.949Z,2.47
2019-04-29T03:11:45.265Z,2.37
2019-04-29T03:12:50.565Z,2.40
2019-04-29T03:13:55.847Z,2.52
2019-04-29T03:15:01.588Z,2.65
2019-04-29T03:16:06.057Z,2.80
2019-04-29T03:17:11.333Z,2.75
2019-04-29T03:18:16.639Z,2.90
2019-04-29T03:19:29.988Z,2.72
2019-04-29T03:20:41.352Z,2.80
2019-04-29T03:22:00.519Z,3.00
2019-04-29T03:23:10.374Z,3.00
2019-04-29T03:24:15.027Z,2.92
2019-04-29T03:25:20.542Z,2.77
2019-04-29T03:26:25.016Z,2.65
2019-04-29T03:27:29.978Z,3.00
2019-04-29T03:28:34.678Z,3.12
2019-04-29T03:29:39.640Z,2.72
2019-04-29T03:30:44.587Z,2.72
2019-04-29T03:31:49.568Z,3.10
2019-04-29T03:32:54.807Z,2.83
2019-04-29T03:34:00.010Z,2.70
2019-04-29T03:35:04.739Z,3.25
2019-04-29T03:36:09.812Z,2.70
2019-04-29T03:37:14.838Z,3.12
2019-04-29T03:38:19.795Z,3.15
2019-04-29T03:39:24.733Z,3.15
2019-04-29T03:40:29.453Z,2.70
2019-04-29T03:41:35.103Z,2.85
2019-04-29T03:42:40.732Z,3.10
2019-04-29T03:43:45.993Z,3.02
2019-04-29T03:44:51.560Z,2.95
2019-04-29T03:45:56.239Z,2.65
2019-04-29T03:47:01.230Z,2.75
2019-04-29T03:48:05.966Z,2.80
2019-04-29T03:49:10.960Z,3.05
2019-04-29T03:50:15.926Z,2.60
2019-04-29T03:51:20.416Z,2.67
2019-04-29T03:52:26.228Z,2.60
2019-04-29T03:53:31.573Z,2.70
2019-04-29T03:54:40.549Z,2.70
2019-04-29T03:55:45.652Z,3.20
2019-04-29T03:56:50.486Z,2.90
2019-04-29T03:57:55.416Z,2.45
2019-04-29T03:59:00.588Z,3.05
2019-04-29T04:00:06.175Z,3.10
2019-04-29T04:01:19.794Z,3.12
2019-04-29T04:02:34.191Z,3.02
2019-04-29T04:03:43.670Z,2.90
2019-04-29T04:05:11.707Z,2.70
2019-04-29T04:06:26.386Z,2.83
2019-04-29T04:07:56.103Z,3.10
2019-04-29T04:09:16.294Z,3.30
2019-04-29T04:10:21.554Z,3.02
2019-04-29T04:11:26.138Z,3.00
2019-04-29T04:12:31.180Z,2.90
2019-04-29T04:13:35.642Z,2.80
2019-04-29T04:14:40.949Z,2.90
2019-04-29T04:15:47.260Z,3.05
2019-04-29T04:17:12.093Z,2.95
2019-04-29T04:18:27.954Z,3.10
2019-04-29T04:19:32.757Z,2.90
2019-04-29T04:20:38.045Z,3.05
2019-04-29T04:21:42.805Z,2.75
2019-04-29T04:22:48.088Z,2.75
2019-04-29T04:23:53.372Z,2.77
2019-04-29T04:24:58.835Z,3.33
2019-04-29T04:26:03.548Z,3.40
2019-04-29T04:27:08.657Z,3.35
2019-04-29T04:28:13.975Z,3.67
2019-04-29T04:29:19.093Z,3.50
2019-04-29T04:30:24.120Z,3.67
2019-04-29T04:31:29.078Z,3.17
2019-04-29T04:32:33.866Z,3.70
2019-04-29T04:33:39.455Z,3.17
2019-04-29T04:34:45.057Z,3.40
2019-04-29T04:35:49.791Z,2.80
2019-04-29T04:36:54.536Z,3.10
2019-04-29T04:37:59.620Z,3.27
2019-04-29T04:39:04.916Z,3.30
2019-04-29T04:40:13.469Z,3.40
2019-04-29T04:41:18.708Z,3.22
2019-04-29T04:42:23.852Z,3.47
2019-04-29T04:43:28.978Z,3.20
2019-04-29T04:44:49.496Z,3.85
2019-04-29T04:45:55.017Z,4.08
2019-04-29T04:47:00.282Z,3.30
2019-04-29T04:48:05.787Z,3.17
2019-04-29T04:49:10.506Z,3.45
2019-04-29T04:50:15.187Z,3.25
2019-04-29T04:51:19.641Z,3.40
2019-04-29T04:52:24.901Z,3.50
2019-04-29T04:53:29.944Z,3.60
2019-04-29T04:54:35.220Z,3.65
2019-04-29T04:55:40.991Z,3.92
2019-04-29T04:56:46.541Z,3.80
2019-04-29T04:57:51.333Z,3.60
2019-04-29T04:58:56.896Z,3.83
2019-04-29T05:00:01.648Z,3.70
2019-04-29T05:01:06.754Z,4.10
2019-04-29T05:02:11.854Z,3.55
2019-04-29T05:03:16.892Z,3.45
2019-04-29T05:04:21.384Z,4.10
2019-04-29T05:05:26.223Z,3.75
2019-04-29T05:06:30.980Z,3.67
2019-04-29T05:07:36.138Z,3.90
2019-04-29T05:08:41.561Z,3.37
2019-04-29T05:09:46.687Z,3.60
2019-04-29T05:10:52.741Z,3.30
2019-04-29T05:11:59.093Z,3.47
2019-04-29T05:13:04.868Z,3.65
2019-04-29T05:14:09.390Z,3.72
2019-04-29T05:15:14.191Z,3.20
2019-04-29T05:16:18.977Z,3.40
2019-04-29T05:17:24.015Z,3.35
2019-04-29T05:18:29.040Z,3.20
2019-04-29T05:19:34.027Z,3.62
2019-04-29T05:20:39.045Z,3.80
2019-04-29T05:21:43.735Z,4.00
2019-04-29T05:23:00.909Z,3.75
2019-04-29T05:24:06.214Z,4.20
2019-04-29T05:25:11.514Z,3.95
2019-04-29T05:26:16.570Z,3.65
2019-04-29T05:27:21.061Z,3.50
2019-04-29T05:28:26.065Z,3.37
2019-04-29T05:29:31.076Z,3.80
2019-04-29T05:30:38.148Z,3.50
2019-04-29T05:31:43.200Z,3.62
2019-04-29T05:32:48.034Z,3.65
2019-04-29T05:33:53.718Z,3.83
2019-04-29T05:35:01.530Z,3.70
2019-04-29T05:36:19.050Z,3.70
2019-04-29T05:37:52.762Z,4.15
2019-04-29T05:39:04.242Z,3.60
2019-04-29T05:40:09.309Z,4.00
2019-04-29T05:41:14.389Z,3.27
2019-04-29T05:42:19.125Z,3.67
2019-04-29T05:43:32.046Z,3.10
2019-04-29T05:44:46.173Z,3.37
2019-04-29T05:46:07.214Z,3.83
2019-04-29T05:47:33.861Z,3.00
2019-04-29T05:48:39.104Z,3.20
2019-04-29T05:50:06.641Z,3.50
2019-04-29T05:51:29.281Z,3.17
2019-04-29T05:52:49.900Z,3.58
2019-04-29T05:53:56.005Z,3.75
2019-04-29T05:55:01.668Z,3.47
2019-04-29T05:56:06.722Z,4.33
2019-04-29T05:57:11.436Z,4.05
2019-04-29T05:58:16.427Z,3.75
2019-04-29T05:59:21.405Z,3.75
2019-04-29T06:00:26.167Z,3.72
2019-04-29T06:01:31.742Z,3.87
2019-04-29T06:02:38.831Z,3.80
2019-04-29T06:03:44.395Z,4.28
2019-04-29T06:04:52.495Z,3.87
2019-04-29T06:05:56.284Z,3.80
2019-04-29T06:07:01.012Z,3.70
2019-04-29T06:08:05.718Z,3.90
2019-04-29T06:09:15.985Z,3.90
2019-04-29T06:10:18.153Z,3.67
2019-04-29T06:11:23.985Z,4.05
2019-04-29T06:12:28.644Z,3.87
2019-04-29T06:13:33.908Z,4.10
2019-04-29T06:14:38.890Z,3.45
2019-04-29T06:15:43.859Z,3.80
2019-04-29T06:16:48.844Z,3.92
2019-04-29T06:17:54.466Z,3.33
2019-04-29T06:19:01.571Z,3.70
2019-04-29T06:20:06.047Z,3.42
2019-04-29T06:21:11.360Z,4.10
2019-04-29T06:22:16.063Z,3.62
2019-04-29T06:23:23.178Z,3.20
2019-04-29T06:24:28.143Z,3.45
2019-04-29T06:25:32.888Z,3.58
2019-04-29T06:26:37.365Z,3.72
2019-04-29T06:27:42.368Z,3.25
2019-04-29T06:28:47.365Z,3.35
2019-04-29T06:29:52.147Z,3.27
2019-04-29T06:30:56.934Z,3.40
2019-04-29T06:32:02.330Z,3.12
2019-04-29T06:33:07.129Z,3.27
2019-04-29T06:34:12.127Z,3.42
2019-04-29T06:35:17.484Z,3.83
2019-04-29T06:36:22.882Z,3.90
2019-04-29T06:37:28.025Z,3.00
2019-04-29T06:38:33.047Z,3.37
2019-04-29T06:39:38.062Z,3.47
2019-04-29T06:40:43.090Z,3.52
2019-04-29T06:41:48.088Z,3.30
2019-04-29T06:42:54.871Z,3.70
2019-04-29T06:44:00.600Z,3.45
2019-04-29T06:45:06.115Z,3.37
2019-04-29T06:46:10.828Z,3.83
2019-04-29T06:47:17.125Z,3.87
2019-04-29T06:48:22.194Z,4.17
2019-04-29T06:49:27.190Z,4.35
2019-04-29T06:50:31.947Z,4.08
2019-04-29T06:51:36.668Z,4.67
2019-04-29T06:52:41.468Z,4.12
2019-04-29T06:53:47.855Z,4.45
2019-04-29T06:54:53.737Z,4.58
2019-04-29T06:55:59.459Z,5.05
2019-04-29T06:57:04.470Z,4.95
2019-04-29T06:58:09.790Z,5.08
2019-04-29T06:59:15.215Z,5.00
2019-04-29T07:00:22.229Z,5.90
2019-04-29T07:01:33.038Z,5.62
2019-04-29T07:02:36.191Z,6.53
2019-04-29T07:03:41.233Z,6.78
2019-04-29T07:04:50.560Z,7.03
2019-04-29T07:05:55.043Z,6.65
2019-04-29T07:06:59.842Z,6.72
2019-04-29T07:08:05.120Z,6.60
2019-04-29T07:09:10.623Z,7.12
2019-04-29T07:10:16.617Z,6.45
2019-04-29T07:11:23.200Z,6.78
2019-04-29T07:12:27.912Z,5.80
2019-04-29T07:13:33.057Z,5.80
2019-04-29T07:14:38.709Z,6.15
2019-04-29T07:15:47.867Z,6.20
2019-04-29T07:16:51.356Z,5.85
2019-04-29T07:17:56.393Z,6.10
2019-04-29T07:19:01.708Z,5.80
2019-04-29T07:20:06.524Z,5.60
2019-04-29T07:21:12.966Z,6.08
2019-04-29T07:22:20.900Z,5.87
2019-04-29T07:23:25.671Z,6.75
2019-04-29T07:24:31.002Z,6.47
2019-04-29T07:25:36.890Z,5.92
2019-04-29T07:26:41.595Z,5.90
2019-04-29T07:27:46.386Z,6.47
2019-04-29T07:28:58.376Z,6.00
2019-04-29T07:30:01.707Z,6.03
2019-04-29T07:31:04.399Z,6.60
2019-04-29T07:32:10.669Z,6.70
2019-04-29T07:33:22.184Z,5.95
2019-04-29T07:34:22.843Z,6.67
2019-04-29T07:35:27.623Z,5.97
2019-04-29T07:36:32.977Z,6.53
2019-04-29T07:37:38.598Z,6.30
2019-04-29T07:38:46.463Z,5.92
2019-04-29T07:39:50.923Z,6.72
2019-04-29T07:40:55.638Z,5.80
2019-04-29T07:42:03.337Z,5.87
2019-04-29T07:43:09.276Z,5.72
2019-04-29T07:44:18.386Z,6.60
2019-04-29T07:45:28.163Z,6.33
2019-04-29T07:46:56.424Z,6.10
2019-04-29T07:47:56.188Z,6.80
2019-04-29T07:49:01.749Z,6.58
2019-04-29T07:50:02.001Z,6.85
2019-04-29T07:51:06.958Z,6.78
2019-04-29T07:52:14.420Z,6.17
2019-04-29T07:53:20.968Z,6.70
2019-04-29T07:54:25.642Z,6.90
2019-04-29T07:55:31.385Z,7.05
2019-04-29T07:56:37.949Z,7.45
2019-04-29T07:57:47.821Z,7.12
2019-04-29T07:58:51.045Z,7.67
2019-04-29T07:59:56.039Z,7.00
2019-04-29T08:01:01.127Z,7.25
2019-04-29T08:02:06.284Z,8.28
2019-04-29T08:03:10.782Z,8.48
2019-04-29T08:04:15.553Z,8.40
2019-04-29T08:05:20.033Z,7.62
2019-04-29T08:06:24.834Z,8.53
2019-04-29T08:07:29.562Z,9.48
2019-04-29T08:08:35.201Z,9.93
2019-04-29T08:09:44.164Z,9.18
2019-04-29T08:10:56.032Z,8.75
2019-04-29T08:11:54.028Z,8.93
2019-04-29T08:13:00.307Z,9.93
2019-04-29T08:14:05.364Z,10.13
2019-04-29T08:15:12.115Z,10.82
2019-04-29T08:16:18.472Z,10.40
2019-04-29T08:17:24.037Z,10.90
2019-04-29T08:18:29.106Z,11.00
2019-04-29T08:19:33.824Z,11.25
2019-04-29T08:20:39.890Z,11.40
2019-04-29T08:21:45.457Z,11.00
2019-04-29T08:22:52.290Z,11.43
2019-04-29T08:23:58.054Z,11.22
2019-04-29T08:25:03.096Z,12.05
2019-04-29T08:26:07.807Z,11.55
2019-04-29T08:27:12.694Z,11.70
2019-04-29T08:28:17.430Z,12.65
2019-04-29T08:29:21.925Z,12.50
2019-04-29T08:30:27.033Z,12.70
2019-04-29T08:31:31.966Z,13.03
2019-04-29T08:32:38.128Z,12.78
2019-04-29T08:33:46.654Z,12.10
2019-04-29T08:34:53.635Z,12.70
2019-04-29T08:35:57.090Z,15.23
2019-04-29T08:37:02.734Z,15.50
2019-04-29T08:38:07.973Z,15.63
2019-04-29T08:39:12.789Z,15.72
2019-04-29T08:40:19.048Z,15.98
2019-04-29T08:41:28.589Z,15.28
2019-04-29T08:42:37.298Z,15.28
2019-04-29T08:43:47.652Z,14.63
2019-04-29T08:45:17.749Z,16.25
2019-04-29T08:46:30.234Z,15.45
2019-04-29T08:47:37.704Z,17.20
2019-04-29T08:48:45.825Z,16.55
2019-04-29T08:49:49.357Z,16.37
2019-04-29T08:50:54.238Z,16.57
2019-04-29T08:51:59.697Z,15.43
2019-04-29T08:53:05.484Z,15.35
2019-04-29T08:54:10.434Z,16.10
2019-04-29T08:55:19.317Z,15.83
2019-04-29T08:56:23.039Z,16.07
2019-04-29T08:57:31.941Z,16.07
2019-04-29T08:58:34.884Z,15.95
2019-04-29T08:59:40.145Z,15.20
2019-04-29T09:00:44.873Z,16.23
2019-04-29T09:01:49.835Z,15.35
2019-04-29T09:02:57.007Z,14.63
2019-04-29T09:04:02.333Z,14.60
2019-04-29T09:05:11.255Z,13.05
2019-04-29T09:06:15.299Z,14.68
2019-04-29T09:07:22.181Z,15.18
2019-04-29T09:08:28.886Z,14.03
2019-04-29T09:09:35.566Z,14.93
2019-04-29T09:10:40.860Z,13.20
2019-04-29T09:11:47.890Z,12.75
2019-04-29T09:12:52.790Z,13.15
2019-04-29T09:13:57.956Z,12.75
2019-04-29T09:15:03.250Z,13.90
2019-04-29T09:16:08.457Z,13.05
2019-04-29T09:17:20.190Z,12.68
2019-04-29T09:18:19.683Z,11.63
2019-04-29T09:19:24.593Z,11.45
2019-04-29T09:20:29.417Z,12.15
2019-04-29T09:21:34.118Z,12.03
2019-04-29T09:22:42.538Z,11.90
2019-04-29T09:23:47.587Z,12.60
2019-04-29T09:25:10.431Z,13.80
2019-04-29T09:26:27.916Z,13.98
2019-04-29T09:27:32.746Z,13.10
2019-04-29T09:28:37.725Z,13.50
2019-04-29T09:29:46.172Z,13.38
2019-04-29T09:30:50.083Z,13.58
2019-04-29T09:31:54.869Z,13.15
2019-04-29T09:32:59.929Z,13.50
2019-04-29T09:34:06.703Z,13.75
2019-04-29T09:35:10.952Z,13.62
2019-04-29T09:36:15.659Z,14.07
2019-04-29T09:37:22.953Z,14.00
2019-04-29T09:38:26.678Z,14.35
2019-04-29T09:39:43.069Z,14.25
2019-04-29T09:40:45.784Z,13.85
2019-04-29T09:42:13.187Z,14.87
2019-04-29T09:43:32.774Z,14.55
2019-04-29T09:45:01.004Z,15.05
2019-04-29T09:46:34.557Z,16.52
2019-04-29T09:47:37.386Z,16.93
2019-04-29T09:48:42.241Z,16.32
2019-04-29T09:49:47.785Z,15.40
2019-04-29T09:50:52.791Z,15.38
2019-04-29T09:51:57.794Z,13.35
2019-04-29T09:53:02.593Z,12.70
2019-04-29T09:54:09.642Z,13.40
2019-04-29T09:55:14.295Z,14.63
2019-04-29T09:56:19.121Z,13.35
2019-04-29T09:57:24.232Z,14.58
2019-04-29T09:58:29.277Z,15.28
2019-04-29T09:59:39.661Z,13.98
2019-04-29T10:01:03.689Z,14.15
2019-04-29T10:02:26.267Z,13.58
2019-04-29T10:03:56.367Z,13.90
2019-04-29T10:05:19.037Z,12.58
2019-04-29T10:06:27.520Z,12.82
2019-04-29T10:07:32.736Z,13.38
2019-04-29T10:08:37.795Z,11.73
2019-04-29T10:09:56.179Z,11.18
2019-04-29T10:10:49.504Z,10.53
2019-04-29T10:11:54.627Z,10.80
2019-04-29T10:12:59.710Z,9.55
2019-04-29T10:14:19.772Z,11.50
2019-04-29T10:15:43.771Z,13.30
2019-04-29T10:17:11.243Z,13.85
2019-04-29T10:18:25.212Z,14.78
2019-04-29T10:19:35.954Z,15.50
2019-04-29T10:20:53.247Z,15.20
2019-04-29T10:21:58.047Z,14.65
2019-04-29T10:23:03.260Z,15.13
2019-04-29T10:24:08.622Z,15.50
2019-04-29T10:25:13.367Z,14.18
2019-04-29T10:26:18.097Z,14.15
2019-04-29T10:27:22.893Z,12.80
2019-04-29T10:28:28.314Z,13.22
2019-04-29T10:29:33.293Z,12.45
2019-04-29T10:30:38.085Z,11.90
2019-04-29T10:31:42.593Z,11.80
2019-04-29T10:32:47.676Z,10.75
2019-04-29T10:33:54.811Z,11.18
2019-04-29T10:35:03.785Z,11.25
2019-04-29T10:36:07.498Z,12.25
2019-04-29T10:37:12.047Z,12.13
2019-04-29T10:38:17.394Z,12.78
2019-04-29T10:39:34.466Z,12.73
2019-04-29T10:41:00.555Z,12.07
2019-04-29T10:42:05.398Z,12.93
2019-04-29T10:43:28.083Z,12.10
2019-04-29T10:45:01.208Z,13.22
2019-04-29T10:46:24.815Z,13.35
2019-04-29T10:47:43.125Z,15.03
2019-04-29T10:48:59.092Z,14.47
2019-04-29T10:50:10.543Z,15.00
2019-04-29T10:51:16.424Z,15.38
2019-04-29T10:52:21.261Z,14.80
2019-04-29T10:53:28.790Z,13.28
2019-04-29T10:54:34.253Z,13.08
2019-04-29T10:55:39.613Z,13.90
2019-04-29T10:56:44.306Z,13.10
2019-04-29T10:57:49.957Z,13.58
2019-04-29T10:58:56.364Z,13.62
2019-04-29T11:00:08.705Z,13.15
2019-04-29T11:02:00.666Z,13.50
2019-04-29T11:02:55.229Z,13.98
2019-04-29T11:04:26.836Z,14.33
2019-04-29T11:05:37.463Z,15.58
2019-04-29T11:06:44.038Z,16.65
2019-04-29T11:07:49.245Z,16.27
2019-04-29T11:09:03.260Z,16.50
2019-04-29T11:10:25.264Z,15.55
2019-04-29T11:11:27.353Z,14.30
2019-04-29T11:12:32.353Z,14.07
2019-04-29T11:13:46.819Z,13.80
2019-04-29T11:14:44.315Z,13.08
2019-04-29T11:15:51.263Z,13.68
2019-04-29T11:16:56.535Z,12.90
2019-04-29T11:18:03.500Z,12.03
2019-04-29T11:19:08.185Z,11.50
2019-04-29T11:20:15.863Z,11.28
2019-04-29T11:21:19.921Z,11.60
2019-04-29T11:22:27.543Z,10.95
2019-04-29T11:23:57.003Z,10.90
2019-04-29T11:25:15.816Z,10.38
2019-04-29T11:26:33.120Z,12.88
2019-04-29T11:27:44.769Z,11.68
2019-04-29T11:28:51.173Z,10.15
2019-04-29T11:29:58.607Z,9.58
2019-04-29T11:31:02.531Z,10.95
2019-04-29T11:32:11.997Z,10.70
2019-04-29T11:33:22.576Z,11.50
2019-04-29T11:34:48.437Z,12.18
2019-04-29T11:36:04.120Z,11.00
2019-04-29T11:37:07.073Z,11.85
2019-04-29T11:38:12.187Z,12.40
2019-04-29T11:39:17.232Z,12.60
2019-04-29T11:40:26.048Z,13.78
2019-04-29T11:41:31.720Z,12.68
2019-04-29T11:42:41.343Z,10.80
2019-04-29T11:43:46.611Z,11.68
2019-04-29T11:44:49.795Z,10.08
2019-04-29T11:45:55.273Z,10.88
2019-04-29T11:47:00.083Z,11.63
2019-04-29T11:48:04.997Z,10.70
2019-04-29T11:49:10.165Z,9.38
2019-04-29T11:50:26.908Z,9.70
2019-04-29T11:51:48.569Z,10.25
2019-04-29T11:52:41.944Z,12.40
2019-04-29T11:53:46.693Z,12.43
2019-04-29T11:54:54.142Z,11.68
2019-04-29T11:55:59.133Z,11.95
2019-04-29T11:57:04.162Z,11.30
2019-04-29T11:58:16.353Z,11.70
2019-04-29T11:59:49.350Z,10.95
2019-04-29T12:01:10.783Z,9.78
2019-04-29T12:02:24.582Z,8.63
2019-04-29T12:03:32.822Z,8.33
2019-04-29T12:04:42.225Z,8.28
2019-04-29T12:05:54.909Z,8.28
2019-04-29T12:06:59.643Z,8.70
2019-04-29T12:08:11.446Z,8.85
2019-04-29T12:09:11.521Z,8.53
2019-04-29T12:10:16.797Z,8.98
2019-04-29T12:11:22.034Z,8.40
2019-04-29T12:12:29.884Z,9.18
2019-04-29T12:13:58.843Z,9.90
2019-04-29T12:15:20.063Z,10.30
2019-04-29T12:16:32.045Z,9.73
2019-04-29T12:17:41.194Z,10.50
2019-04-29T12:19:08.123Z,10.20
2019-04-29T12:20:22.709Z,10.78
2019-04-29T12:21:32.908Z,11.05
2019-04-29T12:22:48.239Z,10.48
2019-04-29T12:23:47.739Z,9.83
2019-04-29T12:24:52.042Z,10.90
2019-04-29T12:25:58.686Z,12.10
2019-04-29T12:27:04.678Z,11.53
2019-04-29T12:28:18.943Z,10.80
2019-04-29T12:29:18.369Z,11.08
2019-04-29T12:30:29.901Z,9.28
2019-04-29T12:31:44.847Z,9.20
2019-04-29T12:33:00.851Z,10.78
2019-04-29T12:34:16.945Z,15.25
2019-04-29T12:35:29.974Z,13.55
2019-04-29T12:36:36.751Z,13.35
2019-04-29T12:38:00.651Z,13.50
2019-04-29T12:39:42.758Z,12.93
2019-04-29T12:41:20.612Z,13.45
2019-04-29T12:42:40.199Z,12.80
2019-04-29T12:44:13.813Z,13.60
2019-04-29T12:45:24.665Z,15.68
2019-04-29T12:46:48.600Z,14.98
2019-04-29T12:47:53.945Z,17.85
2019-04-29T12:48:58.969Z,11.88
2019-04-29T12:50:04.128Z,10.18
2019-04-29T12:51:09.482Z,10.75
2019-04-29T12:52:13.968Z,10.80
2019-04-29T12:53:19.022Z,10.03
2019-04-29T12:54:24.572Z,10.20
2019-04-29T12:55:45.140Z,10.15
2019-04-29T12:56:47.744Z,10.82
2019-04-29T12:57:51.757Z,12.25
2019-04-29T12:58:59.571Z,11.50
2019-04-29T13:00:07.552Z,11.85
2019-04-29T13:01:23.219Z,11.85
2019-04-29T13:02:47.457Z,13.13
2019-04-29T13:04:01.512Z,14.47
2019-04-29T13:05:22.922Z,15.55
2019-04-29T13:06:49.862Z,16.75
2019-04-29T13:07:58.997Z,13.62
2019-04-29T13:09:17.561Z,12.55
2019-04-29T13:10:22.740Z,13.03
2019-04-29T13:11:36.102Z,13.50
2019-04-29T13:12:35.470Z,13.05
2019-04-29T13:13:40.019Z,13.38
2019-04-29T13:15:02.568Z,13.68
2019-04-29T13:16:22.170Z,14.10
2019-04-29T13:17:34.778Z,13.32
2019-04-29T13:19:19.969Z,12.13
2019-04-29T13:20:20.394Z,12.13
2019-04-29T13:21:25.603Z,11.25
2019-04-29T13:22:30.981Z,11.48
2019-04-29T13:23:55.166Z,11.38
2019-04-29T13:24:44.522Z,11.90
2019-04-29T13:25:50.901Z,11.18
2019-04-29T13:30:23.260Z,11.95
2019-04-29T13:31:38.979Z,11.57
2019-04-29T13:32:44.100Z,11.57
2019-04-29T13:33:51.026Z,10.82
2019-04-29T13:35:00.315Z,11.22
2019-04-29T13:36:04.604Z,10.88
2019-04-29T13:37:18.254Z,10.70
2019-04-29T13:38:16.068Z,10.45
2019-04-29T13:39:38.444Z,11.08
2019-04-29T13:40:27.949Z,11.43
2019-04-29T13:41:33.272Z,11.15
2019-04-29T13:42:38.309Z,10.80
2019-04-29T13:43:43.643Z,11.05
2019-04-29T13:45:05.343Z,11.20
2019-04-29T13:46:05.503Z,10.82
2019-04-29T13:47:44.230Z,12.70
2019-04-29T13:49:12.854Z,11.70
2019-04-29T13:50:34.243Z,11.85
2019-04-29T13:51:35.650Z,12.75
2019-04-29T13:52:33.597Z,11.55
2019-04-29T13:53:38.069Z,9.95
2019-04-29T13:54:44.287Z,11.43
2019-04-29T13:55:49.914Z,10.82
2019-04-29T13:56:56.775Z,10.98
2019-04-29T13:58:01.802Z,11.15
2019-04-29T13:59:10.739Z,12.65
2019-04-29T14:00:46.906Z,13.78
2019-04-29T14:02:14.790Z,13.43
2019-04-29T14:03:24.834Z,13.50
2019-04-29T14:04:33.726Z,13.35
2019-04-29T14:05:41.507Z,12.55
2019-04-29T14:06:56.566Z,13.18
2019-04-29T14:07:54.269Z,13.15
2019-04-29T14:08:59.963Z,11.15
2019-04-29T14:10:10.198Z,11.50
2019-04-29T14:11:14.087Z,10.05
2019-04-29T14:12:47.045Z,9.85
2019-04-29T14:13:25.503Z,9.53
2019-04-29T14:14:30.995Z,9.88
2019-04-29T14:15:40.361Z,10.48
2019-04-29T14:16:47.633Z,10.30
2019-04-29T14:17:51.197Z,10.23
2019-04-29T14:18:56.268Z,9.48
2019-04-29T14:20:01.065Z,10.25
2019-04-29T14:21:05.804Z,10.05
2019-04-29T14:22:21.427Z,9.98
2019-04-29T14:23:17.025Z,9.63
2019-04-29T14:24:24.028Z,9.88
2019-04-29T14:25:28.811Z,9.98
2019-04-29T14:26:36.817Z,10.40
2019-04-29T14:27:40.290Z,10.38
2019-04-29T14:28:45.335Z,11.68
2019-04-29T14:29:51.527Z,12.13
2019-04-29T14:30:57.030Z,11.15
2019-04-29T14:32:02.089Z,9.68
2019-04-29T14:33:07.316Z,9.70
2019-04-29T14:34:20.801Z,10.65
2019-04-29T14:35:36.818Z,9.13
2019-04-29T14:36:43.538Z,8.80
2019-04-29T14:38:00.024Z,9.33
2019-04-29T14:38:55.313Z,11.40
2019-04-29T14:40:02.768Z,14.68
2019-04-29T14:41:06.815Z,10.30
2019-04-29T14:42:30.174Z,15.20
2019-04-29T14:43:50.532Z,13.60
2019-04-29T14:45:27.876Z,9.73
2019-04-29T14:46:50.363Z,8.08
2019-04-29T14:48:12.943Z,9.38
2019-04-29T14:49:21.210Z,8.63
2019-04-29T14:50:26.557Z,8.80
2019-04-29T14:51:36.789Z,9.03
2019-04-29T14:52:37.672Z,9.10
2019-04-29T14:53:55.731Z,11.18
2019-04-29T14:54:49.499Z,12.10
2019-04-29T14:55:54.188Z,11.05
2019-04-29T14:57:00.793Z,9.48
2019-04-29T14:58:05.805Z,9.08
2019-04-29T14:59:10.787Z,10.32
2019-04-29T15:00:34.508Z,10.70
2019-04-29T15:02:07.595Z,10.13
2019-04-29T15:03:18.256Z,8.05